sensor_id;sensor_type;location;lat;lon;timestamp;pressure;altitude;pressure_sealevel;temperature;humidity
55675;BME280;41562;44.330;23.802;2022-11-15T00:01:09;101104.16;;;8.74;100.00
55675;BME280;41562;44.330;23.802;2022-11-15T00:03:36;101107.56;;;8.69;100.00
55675;BME280;41562;44.330;23.802;2022-11-15T00:06:04;101109.31;;;8.64;100.00
55675;BME280;41562;44.330;23.802;2022-11-15T00:08:32;101111.34;;;8.73;100.00
55675;BME280;41562;44.330;23.802;2022-11-15T00:11:00;101113.34;;;8.66;100.00
55675;BME280;41562;44.330;23.802;2022-11-15T00:13:29;101107.25;;;8.54;100.00
55675;BME280;41562;44.330;23.802;2022-11-15T00:15:59;101112.69;;;8.47;100.00
55675;BME280;41562;44.330;23.802;2022-11-15T00:18:31;101104.84;;;8.53;100.00
55675;BME280;41562;44.330;23.802;2022-11-15T00:21:07;101097.13;;;8.68;100.00
55675;BME280;41562;44.330;23.802;2022-11-15T00:23:34;101104.03;;;8.52;100.00
55675;BME280;41562;44.330;23.802;2022-11-15T00:26:01;101106.06;;;8.62;100.00
55675;BME280;41562;44.330;23.802;2022-11-15T00:28:29;101097.13;;;8.68;100.00
55675;BME280;41562;44.330;23.802;2022-11-15T00:31:04;101097.94;;;8.68;100.00
55675;BME280;41562;44.330;23.802;2022-11-15T00:33:33;101094.44;;;8.68;100.00
55675;BME280;41562;44.330;23.802;2022-11-15T00:36:02;101100.22;;;8.76;100.00
55675;BME280;41562;44.330;23.802;2022-11-15T00:38:34;101100.28;;;8.65;100.00
55675;BME280;41562;44.330;23.802;2022-11-15T00:41:04;101095.03;;;8.70;100.00
55675;BME280;41562;44.330;23.802;2022-11-15T00:43:41;101093.56;;;8.62;100.00
55675;BME280;41562;44.330;23.802;2022-11-15T00:46:11;101090.16;;;8.67;100.00
55675;BME280;41562;44.330;23.802;2022-11-15T00:48:41;101086.44;;;8.68;100.00
55675;BME280;41562;44.330;23.802;2022-11-15T00:51:08;101082.97;;;8.67;100.00
55675;BME280;41562;44.330;23.802;2022-11-15T00:53:35;101078.69;;;8.66;100.00
55675;BME280;41562;44.330;23.802;2022-11-15T00:56:05;101072.81;;;8.64;100.00
55675;BME280;41562;44.330;23.802;2022-11-15T00:58:32;101071.41;;;8.62;100.00
55675;BME280;41562;44.330;23.802;2022-11-15T01:01:10;101072.94;;;8.58;100.00
55675;BME280;41562;44.330;23.802;2022-11-15T01:03:39;101062.66;;;8.50;100.00
55675;BME280;41562;44.330;23.802;2022-11-15T01:06:08;101061.69;;;8.56;100.00
55675;BME280;41562;44.330;23.802;2022-11-15T01:08:40;101067.97;;;8.50;100.00
55675;BME280;41562;44.330;23.802;2022-11-15T01:11:10;101072.84;;;8.53;100.00
55675;BME280;41562;44.330;23.802;2022-11-15T01:13:39;101068.97;;;8.60;100.00
55675;BME280;41562;44.330;23.802;2022-11-15T01:16:15;101068.03;;;8.66;100.00
55675;BME280;41562;44.330;23.802;2022-11-15T01:18:44;101054.47;;;8.68;100.00
55675;BME280;41562;44.330;23.802;2022-11-15T01:21:14;101058.16;;;8.67;100.00
55675;BME280;41562;44.330;23.802;2022-11-15T01:23:42;101053.91;;;8.66;100.00
55675;BME280;41562;44.330;23.802;2022-11-15T01:26:12;101050.19;;;8.67;100.00
55675;BME280;41562;44.330;23.802;2022-11-15T01:28:41;101042.66;;;8.64;100.00
55675;BME280;41562;44.330;23.802;2022-11-15T01:31:14;101040.59;;;8.66;100.00
55675;BME280;41562;44.330;23.802;2022-11-15T01:33:42;101047.50;;;8.67;100.00
55675;BME280;41562;44.330;23.802;2022-11-15T01:36:15;101034.75;;;8.69;100.00
55675;BME280;41562;44.330;23.802;2022-11-15T01:38:42;101030.00;;;8.71;100.00
55675;BME280;41562;44.330;23.802;2022-11-15T01:41:21;101030.25;;;8.69;100.00
55675;BME280;41562;44.330;23.802;2022-11-15T01:43:52;101031.09;;;8.58;100.00
55675;BME280;41562;44.330;23.802;2022-11-15T01:48:49;101032.59;;;8.54;100.00
55675;BME280;41562;44.330;23.802;2022-11-15T01:51:17;101038.28;;;8.58;100.00
55675;BME280;41562;44.330;23.802;2022-11-15T01:53:49;101034.59;;;8.59;100.00
55675;BME280;41562;44.330;23.802;2022-11-15T01:56:23;101022.88;;;8.60;100.00
55675;BME280;41562;44.330;23.802;2022-11-15T01:58:53;101025.06;;;8.63;100.00
55675;BME280;41562;44.330;23.802;2022-11-15T02:01:24;101025.19;;;8.56;100.00
55675;BME280;41562;44.330;23.802;2022-11-15T02:03:59;101024.72;;;8.59;100.00
55675;BME280;41562;44.330;23.802;2022-11-15T02:06:28;101021.94;;;8.54;100.00
55675;BME280;41562;44.330;23.802;2022-11-15T02:08:56;101019.28;;;8.54;100.00
55675;BME280;41562;44.330;23.802;2022-11-15T02:11:23;101014.88;;;8.60;100.00
55675;BME280;41562;44.330;23.802;2022-11-15T02:13:51;101023.56;;;8.55;100.00
55675;BME280;41562;44.330;23.802;2022-11-15T02:18:54;101018.31;;;8.60;100.00
55675;BME280;41562;44.330;23.802;2022-11-15T02:21:42;101025.53;;;8.60;100.00
55675;BME280;41562;44.330;23.802;2022-11-15T02:24:48;101014.38;;;8.63;100.00
55675;BME280;41562;44.330;23.802;2022-11-15T02:32:39;101008.91;;;8.69;100.00
55675;BME280;41562;44.330;23.802;2022-11-15T02:35:25;101015.91;;;8.59;100.00
55675;BME280;41562;44.330;23.802;2022-11-15T02:37:58;101010.81;;;8.57;100.00
55675;BME280;41562;44.330;23.802;2022-11-15T02:43:15;101007.88;;;8.70;100.00
55675;BME280;41562;44.330;23.802;2022-11-15T02:45:53;101010.19;;;8.67;100.00
55675;BME280;41562;44.330;23.802;2022-11-15T02:48:21;101007.44;;;8.62;100.00
55675;BME280;41562;44.330;23.802;2022-11-15T02:50:50;101017.28;;;8.61;100.00
55675;BME280;41562;44.330;23.802;2022-11-15T02:53:18;101003.56;;;8.53;100.00
55675;BME280;41562;44.330;23.802;2022-11-15T02:55:52;101000.38;;;8.56;100.00
55675;BME280;41562;44.330;23.802;2022-11-15T03:07:15;100999.50;;;8.50;100.00
55675;BME280;41562;44.330;23.802;2022-11-15T03:10:00;100999.19;;;8.63;100.00
55675;BME280;41562;44.330;23.802;2022-11-15T03:12:37;101003.50;;;8.64;100.00
55675;BME280;41562;44.330;23.802;2022-11-15T03:15:17;100994.66;;;8.47;100.00
55675;BME280;41562;44.330;23.802;2022-11-15T03:17:55;101002.78;;;8.40;100.00
55675;BME280;41562;44.330;23.802;2022-11-15T03:20:26;100996.28;;;8.36;100.00
55675;BME280;41562;44.330;23.802;2022-11-15T03:22:58;100997.09;;;8.37;100.00
55675;BME280;41562;44.330;23.802;2022-11-15T03:25:28;100995.25;;;8.37;100.00
55675;BME280;41562;44.330;23.802;2022-11-15T03:27:58;100988.66;;;8.40;100.00
55675;BME280;41562;44.330;23.802;2022-11-15T03:30:30;100982.25;;;8.41;100.00
55675;BME280;41562;44.330;23.802;2022-11-15T03:33:00;100986.81;;;8.40;100.00
55675;BME280;41562;44.330;23.802;2022-11-15T03:35:32;100986.78;;;8.29;100.00
55675;BME280;41562;44.330;23.802;2022-11-15T03:38:22;100992.13;;;8.29;100.00
55675;BME280;41562;44.330;23.802;2022-11-15T03:41:04;100985.09;;;8.34;100.00
55675;BME280;41562;44.330;23.802;2022-11-15T03:44:14;100978.31;;;8.43;100.00
55675;BME280;41562;44.330;23.802;2022-11-15T03:47:03;100972.53;;;8.46;100.00
55675;BME280;41562;44.330;23.802;2022-11-15T03:49:36;100964.03;;;8.50;100.00
55675;BME280;41562;44.330;23.802;2022-11-15T03:52:05;100970.69;;;8.35;100.00
55675;BME280;41562;44.330;23.802;2022-11-15T03:54:32;100965.47;;;8.40;100.00
55675;BME280;41562;44.330;23.802;2022-11-15T03:57:00;100966.97;;;8.36;100.00
55675;BME280;41562;44.330;23.802;2022-11-15T03:59:27;100962.59;;;8.30;100.00
55675;BME280;41562;44.330;23.802;2022-11-15T04:01:54;100970.22;;;8.38;100.00
55675;BME280;41562;44.330;23.802;2022-11-15T04:04:21;100975.53;;;9.89;100.00
55675;BME280;41562;44.330;23.802;2022-11-15T04:06:52;100959.59;;;12.83;93.02
55675;BME280;41562;44.330;23.802;2022-11-15T04:09:19;100964.97;;;13.18;85.78
55675;BME280;41562;44.330;23.802;2022-11-15T04:11:47;100953.66;;;13.21;87.53
55675;BME280;41562;44.330;23.802;2022-11-15T04:14:14;100956.41;;;14.55;83.34
55675;BME280;41562;44.330;23.802;2022-11-15T04:16:41;100951.53;;;14.08;83.67
55675;BME280;41562;44.330;23.802;2022-11-15T04:19:10;100959.81;;;14.17;80.68
55675;BME280;41562;44.330;23.802;2022-11-15T04:21:37;100951.09;;;13.86;83.25
55675;BME280;41562;44.330;23.802;2022-11-15T04:24:05;100941.34;;;13.20;82.28
55675;BME280;41562;44.330;23.802;2022-11-15T04:26:32;100933.28;;;13.25;83.11
55675;BME280;41562;44.330;23.802;2022-11-15T04:29:00;100933.19;;;12.19;89.01
55675;BME280;41562;44.330;23.802;2022-11-15T04:31:28;100932.66;;;13.54;81.79
55675;BME280;41562;44.330;23.802;2022-11-15T04:33:55;100933.59;;;10.97;90.33
55675;BME280;41562;44.330;23.802;2022-11-15T04:36:23;100939.44;;;9.86;97.38
55675;BME280;41562;44.330;23.802;2022-11-15T04:38:51;100937.38;;;9.33;100.00
55675;BME280;41562;44.330;23.802;2022-11-15T04:41:18;100938.38;;;8.94;100.00
55675;BME280;41562;44.330;23.802;2022-11-15T04:43:48;100932.16;;;8.88;100.00
55675;BME280;41562;44.330;23.802;2022-11-15T04:46:15;100938.19;;;8.67;100.00
55675;BME280;41562;44.330;23.802;2022-11-15T04:48:42;100939.09;;;8.56;100.00
55675;BME280;41562;44.330;23.802;2022-11-15T04:51:10;100932.13;;;8.55;100.00
55675;BME280;41562;44.330;23.802;2022-11-15T04:53:37;100928.72;;;8.42;100.00
55675;BME280;41562;44.330;23.802;2022-11-15T04:56:04;100928.91;;;8.53;100.00
55675;BME280;41562;44.330;23.802;2022-11-15T04:58:32;100922.84;;;8.57;100.00
55675;BME280;41562;44.330;23.802;2022-11-15T05:01:10;100928.91;;;8.53;100.00
55675;BME280;41562;44.330;23.802;2022-11-15T05:03:56;100923.75;;;8.63;100.00
55675;BME280;41562;44.330;23.802;2022-11-15T05:06:23;100925.19;;;8.54;100.00
55675;BME280;41562;44.330;23.802;2022-11-15T05:08:50;100920.81;;;8.47;100.00
55675;BME280;41562;44.330;23.802;2022-11-15T05:11:18;100919.44;;;8.45;100.00
55675;BME280;41562;44.330;23.802;2022-11-15T05:13:45;100920.94;;;8.53;100.00
55675;BME280;41562;44.330;23.802;2022-11-15T05:16:12;100911.47;;;8.62;100.00
55675;BME280;41562;44.330;23.802;2022-11-15T05:18:40;100908.41;;;8.70;100.00
55675;BME280;41562;44.330;23.802;2022-11-15T05:21:10;100904.78;;;8.59;100.00
55675;BME280;41562;44.330;23.802;2022-11-15T05:23:39;100909.38;;;8.47;100.00
55675;BME280;41562;44.330;23.802;2022-11-15T05:26:07;100917.91;;;8.49;100.00
55675;BME280;41562;44.330;23.802;2022-11-15T05:28:37;100915.41;;;8.42;100.00
55675;BME280;41562;44.330;23.802;2022-11-15T05:33:33;100908.38;;;8.36;100.00
55675;BME280;41562;44.330;23.802;2022-11-15T05:36:05;100912.34;;;8.34;100.00
55675;BME280;41562;44.330;23.802;2022-11-15T05:38:33;100904.81;;;8.47;100.00
55675;BME280;41562;44.330;23.802;2022-11-15T05:41:01;100907.25;;;8.32;100.00
55675;BME280;41562;44.330;23.802;2022-11-15T05:43:30;100898.66;;;8.30;100.00
55675;BME280;41562;44.330;23.802;2022-11-15T05:45:59;100901.53;;;8.29;100.00
55675;BME280;41562;44.330;23.802;2022-11-15T05:48:27;100902.84;;;8.26;100.00
55675;BME280;41562;44.330;23.802;2022-11-15T05:50:54;100908.94;;;8.38;100.00
55675;BME280;41562;44.330;23.802;2022-11-15T05:53:24;100904.66;;;8.37;100.00
55675;BME280;41562;44.330;23.802;2022-11-15T05:55:54;100906.53;;;8.25;100.00
55675;BME280;41562;44.330;23.802;2022-11-15T05:58:22;100909.97;;;8.37;100.00
55675;BME280;41562;44.330;23.802;2022-11-15T06:00:49;100909.78;;;8.27;100.00
55675;BME280;41562;44.330;23.802;2022-11-15T06:03:16;100913.00;;;8.29;100.00
55675;BME280;41562;44.330;23.802;2022-11-15T06:05:43;100909.78;;;8.27;100.00
55675;BME280;41562;44.330;23.802;2022-11-15T06:08:11;100915.81;;;8.34;100.00
55675;BME280;41562;44.330;23.802;2022-11-15T06:10:38;100916.56;;;8.46;100.00
55675;BME280;41562;44.330;23.802;2022-11-15T06:13:06;100923.25;;;8.49;100.00
55675;BME280;41562;44.330;23.802;2022-11-15T06:15:33;100918.06;;;8.42;100.00
55675;BME280;41562;44.330;23.802;2022-11-15T06:18:00;100916.22;;;8.43;100.00
55675;BME280;41562;44.330;23.802;2022-11-15T06:20:29;100918.56;;;8.39;100.00
55675;BME280;41562;44.330;23.802;2022-11-15T06:22:58;100926.06;;;8.42;100.00
55675;BME280;41562;44.330;23.802;2022-11-15T06:25:28;100923.88;;;8.39;100.00
55675;BME280;41562;44.330;23.802;2022-11-15T06:27:58;100931.00;;;8.34;100.00
55675;BME280;41562;44.330;23.802;2022-11-15T06:30:26;100927.91;;;8.42;100.00
55675;BME280;41562;44.330;23.802;2022-11-15T06:33:01;100930.19;;;8.50;100.00
55675;BME280;41562;44.330;23.802;2022-11-15T06:35:29;100926.94;;;8.48;100.00
55675;BME280;41562;44.330;23.802;2022-11-15T06:38:02;100923.47;;;8.47;100.00
55675;BME280;41562;44.330;23.802;2022-11-15T06:40:30;100924.41;;;8.53;100.00
55675;BME280;41562;44.330;23.802;2022-11-15T06:42:59;100925.19;;;8.54;100.00
55675;BME280;41562;44.330;23.802;2022-11-15T06:45:27;100922.78;;;8.52;100.00
55675;BME280;41562;44.330;23.802;2022-11-15T06:47:54;100926.81;;;8.55;100.00
55675;BME280;41562;44.330;23.802;2022-11-15T06:50:21;100927.63;;;8.55;100.00
55675;BME280;41562;44.330;23.802;2022-11-15T06:52:49;100914.06;;;8.57;100.00
55675;BME280;41562;44.330;23.802;2022-11-15T06:55:16;100914.88;;;8.57;100.00
55675;BME280;41562;44.330;23.802;2022-11-15T06:57:50;100921.59;;;8.60;100.00
55675;BME280;41562;44.330;23.802;2022-11-15T07:00:20;100909.38;;;8.64;100.00
55675;BME280;41562;44.330;23.802;2022-11-15T07:02:48;100906.63;;;8.59;100.00
55675;BME280;41562;44.330;23.802;2022-11-15T07:05:15;100920.13;;;8.69;100.00
55675;BME280;41562;44.330;23.802;2022-11-15T07:07:42;100910.66;;;8.61;100.00
55675;BME280;41562;44.330;23.802;2022-11-15T07:10:10;100903.53;;;8.67;100.00
55675;BME280;41562;44.330;23.802;2022-11-15T07:12:40;100904.69;;;8.71;100.00
55675;BME280;41562;44.330;23.802;2022-11-15T07:15:12;100912.34;;;8.67;100.00
55675;BME280;41562;44.330;23.802;2022-11-15T07:17:40;100905.66;;;8.65;100.00
55675;BME280;41562;44.330;23.802;2022-11-15T07:20:08;100902.50;;;8.68;100.00
55675;BME280;41562;44.330;23.802;2022-11-15T07:22:37;100909.28;;;8.92;100.00
55675;BME280;41562;44.330;23.802;2022-11-15T07:25:04;100903.09;;;8.70;100.00
55675;BME280;41562;44.330;23.802;2022-11-15T07:27:32;100903.00;;;8.65;100.00
55675;BME280;41562;44.330;23.802;2022-11-15T07:29:59;100903.88;;;8.70;100.00
55675;BME280;41562;44.330;23.802;2022-11-15T07:32:27;100902.75;;;8.83;100.00
55675;BME280;41562;44.330;23.802;2022-11-15T07:34:54;100903.16;;;8.75;100.00
55675;BME280;41562;44.330;23.802;2022-11-15T07:37:21;100901.59;;;8.79;100.00
55675;BME280;41562;44.330;23.802;2022-11-15T07:39:48;100903.88;;;8.70;100.00
55675;BME280;41562;44.330;23.802;2022-11-15T07:42:15;100901.53;;;8.74;100.00
55675;BME280;41562;44.330;23.802;2022-11-15T07:44:42;100903.22;;;8.80;100.00
55675;BME280;41562;44.330;23.802;2022-11-15T07:47:10;100893.13;;;8.82;100.00
55675;BME280;41562;44.330;23.802;2022-11-15T07:49:37;100894.44;;;8.96;100.00
55675;BME280;41562;44.330;23.802;2022-11-15T07:52:04;100889.16;;;9.01;100.00
55675;BME280;41562;44.330;23.802;2022-11-15T07:54:32;100885.56;;;8.91;100.00
55675;BME280;41562;44.330;23.802;2022-11-15T07:56:59;100894.84;;;8.88;100.00
55675;BME280;41562;44.330;23.802;2022-11-15T07:59:33;100893.56;;;8.91;100.00
55675;BME280;41562;44.330;23.802;2022-11-15T08:02:00;100888.13;;;9.02;100.00
55675;BME280;41562;44.330;23.802;2022-11-15T08:04:28;100884.31;;;8.98;100.00
55675;BME280;41562;44.330;23.802;2022-11-15T08:06:55;100894.91;;;8.93;100.00
55675;BME280;41562;44.330;23.802;2022-11-15T08:09:23;100888.22;;;8.91;100.00
55675;BME280;41562;44.330;23.802;2022-11-15T08:11:50;100886.91;;;8.93;100.00
55675;BME280;41562;44.330;23.802;2022-11-15T08:14:17;100884.00;;;8.95;100.00
55675;BME280;41562;44.330;23.802;2022-11-15T08:16:44;100874.94;;;8.96;100.00
55675;BME280;41562;44.330;23.802;2022-11-15T08:19:12;100882.72;;;8.97;99.94
55675;BME280;41562;44.330;23.802;2022-11-15T08:21:39;100882.88;;;8.91;100.00
55675;BME280;41562;44.330;23.802;2022-11-15T08:24:09;100880.22;;;8.91;100.00
55675;BME280;41562;44.330;23.802;2022-11-15T08:26:37;100884.81;;;8.95;99.43
55675;BME280;41562;44.330;23.802;2022-11-15T08:29:05;100876.22;;;8.93;100.00
55675;BME280;41562;44.330;23.802;2022-11-15T08:31:32;100878.50;;;9.01;99.98
55675;BME280;41562;44.330;23.802;2022-11-15T08:34:00;100878.91;;;9.10;99.04
55675;BME280;41562;44.330;23.802;2022-11-15T08:36:31;100872.41;;;9.06;97.92
55675;BME280;41562;44.330;23.802;2022-11-15T08:39:11;100870.09;;;9.09;97.72
55675;BME280;41562;44.330;23.802;2022-11-15T08:41:39;100868.94;;;9.05;98.67
55675;BME280;41562;44.330;23.802;2022-11-15T08:44:06;100869.44;;;9.02;98.88
55675;BME280;41562;44.330;23.802;2022-11-15T08:46:33;100870.09;;;9.09;98.32
55675;BME280;41562;44.330;23.802;2022-11-15T08:49:01;100863.38;;;9.07;97.29
55675;BME280;41562;44.330;23.802;2022-11-15T08:51:28;100862.09;;;9.09;97.98
55675;BME280;41562;44.330;23.802;2022-11-15T08:53:55;100862.50;;;9.01;98.62
55675;BME280;41562;44.330;23.802;2022-11-15T08:56:22;100860.94;;;9.05;99.21
55675;BME280;41562;44.330;23.802;2022-11-15T08:58:50;100849.09;;;8.96;98.44
55675;BME280;41562;44.330;23.802;2022-11-15T09:01:19;100846.78;;;9.05;98.08
55675;BME280;41562;44.330;23.802;2022-11-15T09:03:47;100836.28;;;9.15;97.40
55675;BME280;41562;44.330;23.802;2022-11-15T09:06:14;100845.44;;;9.02;96.38
55675;BME280;41562;44.330;23.802;2022-11-15T09:08:42;100842.38;;;8.94;96.52
55675;BME280;41562;44.330;23.802;2022-11-15T09:11:22;100848.41;;;9.06;96.28
55675;BME280;41562;44.330;23.802;2022-11-15T09:13:50;100838.25;;;9.03;94.93
55675;BME280;41562;44.330;23.802;2022-11-15T09:16:17;100832.13;;;8.85;95.06
55675;BME280;41562;44.330;23.802;2022-11-15T09:18:45;100839.00;;;8.81;95.66
55675;BME280;41562;44.330;23.802;2022-11-15T09:21:16;100835.59;;;9.03;94.89
55675;BME280;41562;44.330;23.802;2022-11-15T09:23:43;100829.84;;;8.94;94.36
55675;BME280;41562;44.330;23.802;2022-11-15T09:26:10;100826.03;;;9.07;95.06
55675;BME280;41562;44.330;23.802;2022-11-15T09:28:38;100829.56;;;9.12;94.00
55675;BME280;41562;44.330;23.802;2022-11-15T09:31:05;100823.72;;;8.94;94.36
55675;BME280;41562;44.330;23.802;2022-11-15T09:33:33;100823.47;;;8.95;94.82
55675;BME280;41562;44.330;23.802;2022-11-15T09:36:05;100822.13;;;9.14;93.29
55675;BME280;41562;44.330;23.802;2022-11-15T09:38:33;100819.94;;;9.11;94.09
55675;BME280;41562;44.330;23.802;2022-11-15T09:48:53;100809.84;;;9.13;93.27
55675;BME280;41562;44.330;23.802;2022-11-15T09:51:33;100804.94;;;9.05;94.34
55675;BME280;41562;44.330;23.802;2022-11-15T09:56:51;100794.41;;;9.15;93.87
55675;BME280;41562;44.330;23.802;2022-11-15T10:02:30;100794.47;;;9.20;92.93
55675;BME280;41562;44.330;23.802;2022-11-15T10:05:01;100784.22;;;9.12;92.62
55675;BME280;41562;44.330;23.802;2022-11-15T10:10:44;100783.41;;;9.12;93.25
55675;BME280;41562;44.330;23.802;2022-11-15T10:13:24;100773.69;;;9.22;93.41
55675;BME280;41562;44.330;23.802;2022-11-15T10:15:55;100774.78;;;9.26;92.53
55675;BME280;41562;44.330;23.802;2022-11-15T10:18:49;100772.22;;;9.37;92.20
55675;BME280;41562;44.330;23.802;2022-11-15T10:21:35;100764.34;;;9.25;91.83
55675;BME280;41562;44.330;23.802;2022-11-15T10:24:18;100758.16;;;9.19;93.37
55675;BME280;41562;44.330;23.802;2022-11-15T10:26:48;100760.78;;;9.14;92.80
55675;BME280;41562;44.330;23.802;2022-11-15T10:29:20;100762.44;;;9.20;92.90
55675;BME280;41562;44.330;23.802;2022-11-15T10:31:53;100757.59;;;9.17;92.83
55675;BME280;41562;44.330;23.802;2022-11-15T10:34:22;100760.41;;;9.27;92.96
55675;BME280;41562;44.330;23.802;2022-11-15T10:36:59;100750.09;;;9.14;92.12
55675;BME280;41562;44.330;23.802;2022-11-15T10:39:31;100748.47;;;9.13;92.12
55675;BME280;41562;44.330;23.802;2022-11-15T10:42:16;100739.53;;;9.24;92.33
55675;BME280;41562;44.330;23.802;2022-11-15T10:44:44;100734.53;;;9.28;91.79
55675;BME280;41562;44.330;23.802;2022-11-15T10:47:23;100727.09;;;9.08;91.92
55675;BME280;41562;44.330;23.802;2022-11-15T10:50:00;100721.94;;;9.02;92.40
55675;BME280;41562;44.330;23.802;2022-11-15T10:52:30;100719.69;;;9.15;92.57
55675;BME280;41562;44.330;23.802;2022-11-15T10:55:12;100717.03;;;9.15;92.20
55675;BME280;41562;44.330;23.802;2022-11-15T10:57:53;100711.31;;;9.07;92.13
55675;BME280;41562;44.330;23.802;2022-11-15T11:00:32;100710.56;;;9.11;92.07
55675;BME280;41562;44.330;23.802;2022-11-15T11:03:06;100707.50;;;9.24;91.96
55675;BME280;41562;44.330;23.802;2022-11-15T11:05:39;100708.50;;;9.18;91.92
55675;BME280;41562;44.330;23.802;2022-11-15T11:10:59;100708.22;;;9.15;92.24
55675;BME280;41562;44.330;23.802;2022-11-15T11:13:32;100705.19;;;9.06;92.29
55675;BME280;41562;44.330;23.802;2022-11-15T11:21:34;100693.22;;;9.09;91.66
55675;BME280;41562;44.330;23.802;2022-11-15T11:27:13;100699.84;;;9.06;92.03
55675;BME280;41562;44.330;23.802;2022-11-15T11:35:34;100670.28;;;9.35;91.48
55675;BME280;41562;44.330;23.802;2022-11-15T11:46:37;100657.38;;;9.26;90.79
55675;BME280;41562;44.330;23.802;2022-11-15T11:49:16;100659.44;;;9.19;90.50
55675;BME280;41562;44.330;23.802;2022-11-15T11:52:08;100659.00;;;9.27;90.83
55675;BME280;41562;44.330;23.802;2022-11-15T12:00:14;100649.34;;;9.21;90.95
55675;BME280;41562;44.330;23.802;2022-11-15T12:05:34;100633.53;;;9.15;90.99
55675;BME280;41562;44.330;23.802;2022-11-15T12:08:29;100633.78;;;9.13;91.49
55675;BME280;41562;44.330;23.802;2022-11-15T12:11:14;100624.75;;;9.19;91.29
55675;BME280;41562;44.330;23.802;2022-11-15T12:13:44;100623.72;;;9.20;91.49
55675;BME280;41562;44.330;23.802;2022-11-15T12:16:19;100620.03;;;9.26;91.48
55675;BME280;41562;44.330;23.802;2022-11-15T12:18:52;100618.66;;;9.24;91.41
55675;BME280;41562;44.330;23.802;2022-11-15T12:21:35;100613.13;;;9.31;91.10
55675;BME280;41562;44.330;23.802;2022-11-15T12:26:49;100601.81;;;9.18;91.15
55675;BME280;41562;44.330;23.802;2022-11-15T12:31:55;100590.84;;;9.15;91.46
55675;BME280;41562;44.330;23.802;2022-11-15T12:34:45;100599.69;;;9.20;90.53
55675;BME280;41562;44.330;23.802;2022-11-15T12:58:57;100586.34;;;9.20;90.92
55675;BME280;41562;44.330;23.802;2022-11-15T13:19:52;100565.16;;;9.36;90.37
55675;BME280;41562;44.330;23.802;2022-11-15T13:22:20;100569.69;;;9.35;89.94
55675;BME280;41562;44.330;23.802;2022-11-15T13:24:48;100575.03;;;9.35;89.67
55675;BME280;41562;44.330;23.802;2022-11-15T13:27:18;100560.81;;;9.29;90.31
55675;BME280;41562;44.330;23.802;2022-11-15T13:29:46;100557.00;;;9.20;90.57
55675;BME280;41562;44.330;23.802;2022-11-15T13:32:15;100557.22;;;9.14;91.39
55675;BME280;41562;44.330;23.802;2022-11-15T13:34:44;100554.91;;;9.22;91.37
55675;BME280;41562;44.330;23.802;2022-11-15T13:39:48;100554.91;;;9.22;91.21
55675;BME280;41562;44.330;23.802;2022-11-15T13:42:18;100553.88;;;9.28;90.49
55675;BME280;41562;44.330;23.802;2022-11-15T13:44:57;100548.53;;;9.28;90.31
55675;BME280;41562;44.330;23.802;2022-11-15T13:47:26;100545.25;;;9.16;90.46
55675;BME280;41562;44.330;23.802;2022-11-15T13:49:57;100546.47;;;9.04;91.04
55675;BME280;41562;44.330;23.802;2022-11-15T13:52:31;100546.25;;;9.10;92.50
55675;BME280;41562;44.330;23.802;2022-11-15T13:55:00;100553.69;;;9.08;91.63
55675;BME280;41562;44.330;23.802;2022-11-15T14:00:02;100539.31;;;9.09;91.85
55675;BME280;41562;44.330;23.802;2022-11-15T14:02:33;100530.81;;;9.17;90.77
55675;BME280;41562;44.330;23.802;2022-11-15T14:05:19;100531.34;;;9.14;90.96
55675;BME280;41562;44.330;23.802;2022-11-15T14:10:35;100522.75;;;9.07;91.90
55675;BME280;41562;44.330;23.802;2022-11-15T14:13:04;100520.00;;;8.97;92.20
55675;BME280;41562;44.330;23.802;2022-11-15T14:15:38;100519.78;;;9.04;92.20
55675;BME280;41562;44.330;23.802;2022-11-15T14:18:06;100517.44;;;9.12;92.30
55675;BME280;41562;44.330;23.802;2022-11-15T14:20:38;100517.22;;;9.19;91.86
55675;BME280;41562;44.330;23.802;2022-11-15T14:23:26;100512.16;;;9.17;93.84
55675;BME280;41562;44.330;23.802;2022-11-15T14:25:55;100510.56;;;9.16;92.46
55675;BME280;41562;44.330;23.802;2022-11-15T14:30:56;100511.34;;;9.17;92.00
55675;BME280;41562;44.330;23.802;2022-11-15T14:33:28;100509.53;;;9.22;93.72
55675;BME280;41562;44.330;23.802;2022-11-15T14:35:58;100501.53;;;9.22;92.64
55675;BME280;41562;44.330;23.802;2022-11-15T14:38:30;100503.66;;;9.20;91.78
55675;BME280;41562;44.330;23.802;2022-11-15T14:41:00;100499.81;;;9.11;91.87
55675;BME280;41562;44.330;23.802;2022-11-15T14:43:28;100494.00;;;9.14;93.96
55675;BME280;41562;44.330;23.802;2022-11-15T14:45:55;100485.44;;;9.12;92.32
55675;BME280;41562;44.330;23.802;2022-11-15T14:48:23;100490.25;;;9.10;92.19
55675;BME280;41562;44.330;23.802;2022-11-15T14:50:50;100480.56;;;9.04;92.19
55675;BME280;41562;44.330;23.802;2022-11-15T14:53:18;100487.78;;;9.04;93.13
55675;BME280;41562;44.330;23.802;2022-11-15T14:55:45;100475.19;;;8.99;92.94
55675;BME280;41562;44.330;23.802;2022-11-15T14:58:13;100470.44;;;9.06;93.38
55675;BME280;41562;44.330;23.802;2022-11-15T15:00:41;100463.06;;;9.18;93.54
55675;BME280;41562;44.330;23.802;2022-11-15T15:03:09;100463.81;;;9.09;93.62
55675;BME280;41562;44.330;23.802;2022-11-15T15:05:39;100461.88;;;9.04;94.13
55675;BME280;41562;44.330;23.802;2022-11-15T15:08:07;100458.22;;;9.10;93.18
55675;BME280;41562;44.330;23.802;2022-11-15T15:10:38;100466.50;;;9.14;92.67
55675;BME280;41562;44.330;23.802;2022-11-15T15:13:18;100464.66;;;9.14;92.54